الصفحة الرئيسية
صور الأقمار الصناعية توقعات الطقس لمدة 15 يوممناخالتوقعات البحرية إعصار برق مطارأسئلة وأجوبة النشرة الإخبارية حول
طقس : أوروبا أفريقيا أمريكا الشمالية أمريكا الجنوبية آسيا أستراليا-أوقيانوسيا آخرون
لغات جهة اتصال

سكاكا, السعودية

دائرة عرض: 29-47N, خط طول: 040-06E, ارتفاع: 689 m


METAR: OESK 012300Z 36007KT CAVOK 30/09 Q1007 NOSIG
short-TAF: عفا عليها الزمن (131 ساعات)
long-TAF: OESK 011030Z 0112/0218 04013KT 7000 NSC

زمن: 02:20 (23:20 UTC)

مراقبة الطقس الحالي

تاريخ و وقت الإصدار 20 دقيقة قبل الساعة 23:00 UTC  
ريح 07 kt من الشمال
درجة الحرارة 30°C
الرطوبة 27%
ضغط 1007 hPa
الرؤية 10 km أو أكثر
الغيوم لا تقل 1500 م وليس السحاب الأسود

تغيير وحدة

توقعات

تاريخ و وقت الإصدار 11 ساعات و 53 دقيقة قبل الساعة 11:27 UTC  
صالحة من التوقعات 01 في 12 بالتوقيت العالمي إلى 02 في 18 بالتوقيت العالمي
ريح 13 kt من الشمال
الرؤية 7000 m
المعلومات الواردة في هذا الموقع يخضع إخلاء
طقس : أوروبا أفريقيا أمريكا الشمالية أمريكا الجنوبية آسيا أستراليا-أوقيانوسيا آخرون
صور الأقمار الصناعية توقعات الطقس لمدة 15 يوممناخالتوقعات البحرية إعصار برق مطارأسئلة وأجوبة لغات جهة اتصال النشرة الإخبارية حول